GVNP

Details ICAO GVNP (RAI)
Name PRAIA INTERNATIONAL
Region Cape Verde
Timezone Atlantic/Cape_Verde (UTC-1.0)
Plans Departing 131
Arriving 140
Stats Elevation 230 ft / 70 m (AMSL)
Location 14.932581° -23.489194°
Runways 2
Magnetic Variation 9.833° W
Sunrise 2018-05-23 07:05:27 UTC / 2018-05-23 06:05:27 Local
Sunset 2018-05-23 19:58:50 UTC / 2018-05-23 18:58:50 Local
Advertisement - Login to hide

Runways

ID Width Length Bearing (true) Bearing (mag) Surface Threshold Offset Overrun Length
03L 98 ft / 30 m 4,188 ft / 1,277 m 21.85° 31.68° Asphalt 0 ft / 0 m 0 ft / 0 m
03R 148 ft / 45 m 6,906 ft / 2,105 m 21.78° 31.61° Asphalt 650 ft / 198 m 0 ft / 0 m
21L 148 ft / 45 m 6,906 ft / 2,105 m 201.78° 211.61° Asphalt 0 ft / 0 m 0 ft / 0 m
21R 98 ft / 30 m 4,188 ft / 1,277 m 201.86° 211.69° Asphalt 0 ft / 0 m 0 ft / 0 m

Map

Weather


0- 5 10 15 20 25 30 35+ Temperature / ° C

Clouds and Precipitation
Forecast for 2018-05-23 12:00 UTC. Updated 2 hours ago

Ground ~20,000 ft ~40,000 ft Winds

METAR

GVNP 231300Z 36016KT 320V030 9999 FEW014 26/16 Q1016 NOSIG

TAF

TAF GVNP 231100Z 2312/2418 02018KT 9999 SCT017 BECMG 2321/2323 02012KT BECMG 2410/2412 02018KT

Frequencies

Tower 118.20 MHz PRAIA TWR
Approach 118.20 MHz PRAIA APP
Warning: Do not use this data for real-world aviation or navigation. No guarantee of current accuracy is given.